DIAP/ABJ METAR and TAF weather

Enter ICAO airport designator
Station Type Date Time Source
DIAP METAR 2020/01/22 12:00 UTC NOAA

DIAP 221200Z 17006KT 140V210 7000 SCT012 32/25 Q1011 NOSIG


Station Type Date Time Source
DIAP Decoded METAR 2020/01/22 12:00 UTC NOAA

Abidjan, Cote d'Ivoire (DIAP) 05-15N 003-56W 8M
Jan 22, 2020 - 07:00 AM EST / 2020.01.22 1200 UTC
Wind: from the S (170 degrees) at 7 MPH (6 KT) (direction variable):0
Visibility: 4 mile(s):0
Sky conditions: partly cloudy
Temperature: 89 F (32 C)
Heat index: 100.6 F (38.1 C):1
Dew Point: 77 F (25 C)
Relative Humidity: 66%
Pressure (altimeter): 29.85 in. Hg (1011 hPa)
ob: DIAP 221200Z 17006KT 140V210 7000 SCT012 32/25 Q1011 NOSIG
cycle: 12

Station Type Date Time Source
DIAP TAF 2020/01/22 12:48 UTC NOAA

TAF TAF DIAP 221100Z 2212/2318 18008KT 8000 SCT012 PROB30
TEMPO 2216/2222 TS BKN012 FEW020CB

Example: see airport list